DAL2339 KMIA-KLGA
Flight info
| Callsign | DAL2339 |
|---|---|
| Flight time | 2h 31m |
| Altitude | 34000 |
| Route | FOLZZ3 ALYRA GRUBR/N0474F330 Y299 SEELO GARIC Q107 HURTS PROUD2 |
| Aircraft | B739/M-SDE2E3FGHIRWXY/LB1 |
Departure
| Time | 2026-05-06 10:28 |
|---|---|
| Airport | Miami International Airport (KMIA) |
Arrival
| Time | 2026-05-06 13:00 |
|---|---|
| Airport | LaGuardia Airport (KLGA) |
| Time | Latitude | Longitude | Altitude | Speed | Heading |
|---|---|---|---|---|---|
| 2026-05-06 09:51 | 25.79088 | -80.27720 | 14 ft | 0 kts | 83° |
| 2026-05-06 10:18 | 25.79086 | -80.27735 | 14 ft | 4 kts | 83° |
| 2026-05-06 10:18 | 25.79083 | -80.27760 | 17 ft | 4 kts | 98° |
| 2026-05-06 10:18 | 25.79094 | -80.27776 | 16 ft | 4 kts | 175° |
| 2026-05-06 10:19 | 25.79105 | -80.27777 | 18 ft | 4 kts | 185° |
| 2026-05-06 10:19 | 25.79080 | -80.27786 | 14 ft | 4 kts | 202° |
| 2026-05-06 10:19 | 25.79060 | -80.27795 | 14 ft | 3 kts | 202° |
| 2026-05-06 10:19 | 25.79035 | -80.27806 | 14 ft | 4 kts | 202° |
| 2026-05-06 10:20 | 25.79010 | -80.27818 | 14 ft | 3 kts | 202° |
| 2026-05-06 10:20 | 25.79007 | -80.27819 | 14 ft | 0 kts | 202° |
| 2026-05-06 10:22 | 25.78999 | -80.27823 | 14 ft | 4 kts | 202° |
| 2026-05-06 10:23 | 25.78952 | -80.27850 | 14 ft | 10 kts | 223° |
| 2026-05-06 10:23 | 25.78939 | -80.27925 | 15 ft | 12 kts | 282° |
| 2026-05-06 10:23 | 25.78995 | -80.28043 | 15 ft | 22 kts | 299° |
| 2026-05-06 10:23 | 25.79081 | -80.28211 | 15 ft | 26 kts | 299° |
| 2026-05-06 10:24 | 25.79164 | -80.28364 | 14 ft | 18 kts | 300° |
| 2026-05-06 10:24 | 25.79245 | -80.28462 | 14 ft | 17 kts | 300° |
| 2026-05-06 10:24 | 25.79303 | -80.28575 | 14 ft | 17 kts | 298° |
| 2026-05-06 10:24 | 25.79377 | -80.28721 | 14 ft | 26 kts | 299° |
| 2026-05-06 10:25 | 25.79477 | -80.28916 | 14 ft | 30 kts | 299° |
| 2026-05-06 10:25 | 25.79578 | -80.29114 | 14 ft | 29 kts | 299° |
| 2026-05-06 10:25 | 25.79674 | -80.29301 | 14 ft | 27 kts | 299° |
| 2026-05-06 10:25 | 25.79765 | -80.29478 | 14 ft | 26 kts | 300° |
| 2026-05-06 10:26 | 25.79849 | -80.29644 | 14 ft | 24 kts | 299° |
| 2026-05-06 10:26 | 25.79921 | -80.29804 | 13 ft | 23 kts | 294° |
| 2026-05-06 10:26 | 25.79973 | -80.29951 | 12 ft | 15 kts | 285° |
| 2026-05-06 10:26 | 25.80000 | -80.30060 | 12 ft | 14 kts | 286° |
| 2026-05-06 10:27 | 25.80060 | -80.30115 | 13 ft | 13 kts | 31° |
| 2026-05-06 10:27 | 25.80074 | -80.30078 | 13 ft | 0 kts | 86° |
| 2026-05-06 10:27 | 25.80074 | -80.30069 | 12 ft | 7 kts | 86° |
| 2026-05-06 10:27 | 25.80086 | -80.29768 | 13 ft | 73 kts | 88° |
| 2026-05-06 10:28 | 25.80120 | -80.28968 | 16 ft | 132 kts | 87° |
| 2026-05-06 10:28 | 25.80171 | -80.27788 | 146 ft | 164 kts | 87° |
| 2026-05-06 10:28 | 25.80256 | -80.26548 | 757 ft | 163 kts | 85° |
| 2026-05-06 10:28 | 25.80210 | -80.25244 | 1186 ft | 173 kts | 109° |
| 2026-05-06 10:29 | 25.79631 | -80.24017 | 1428 ft | 188 kts | 121° |
| 2026-05-06 10:29 | 25.78967 | -80.22741 | 1698 ft | 198 kts | 118° |
| 2026-05-06 10:29 | 25.78299 | -80.21323 | 1917 ft | 212 kts | 117° |
| 2026-05-06 10:29 | 25.77605 | -80.19809 | 2092 ft | 227 kts | 116° |
| 2026-05-06 10:30 | 25.76908 | -80.18213 | 2336 ft | 240 kts | 115° |
| 2026-05-06 10:30 | 25.76123 | -80.16478 | 2474 ft | 261 kts | 117° |
| 2026-05-06 10:30 | 25.75242 | -80.14677 | 2976 ft | 267 kts | 118° |
| 2026-05-06 10:30 | 25.74390 | -80.12847 | 3594 ft | 268 kts | 105° |
| 2026-05-06 10:31 | 25.74280 | -80.10799 | 4120 ft | 270 kts | 76° |
| 2026-05-06 10:31 | 25.75077 | -80.08935 | 4725 ft | 271 kts | 54° |
| 2026-05-06 10:31 | 25.76264 | -80.07300 | 5294 ft | 271 kts | 49° |
| 2026-05-06 10:31 | 25.77527 | -80.05731 | 5855 ft | 276 kts | 47° |
| 2026-05-06 10:32 | 25.78823 | -80.04137 | 6387 ft | 279 kts | 47° |
| 2026-05-06 10:32 | 25.80125 | -80.02527 | 6916 ft | 283 kts | 47° |
| 2026-05-06 10:32 | 25.81437 | -80.00892 | 7465 ft | 285 kts | 47° |
| 2026-05-06 10:32 | 25.82759 | -79.99234 | 8050 ft | 287 kts | 47° |
| 2026-05-06 10:33 | 25.84081 | -79.97568 | 8635 ft | 289 kts | 46° |
| 2026-05-06 10:33 | 25.85412 | -79.95886 | 9229 ft | 291 kts | 46° |
| 2026-05-06 10:33 | 25.86754 | -79.94186 | 9841 ft | 294 kts | 46° |
| 2026-05-06 10:33 | 25.88109 | -79.92467 | 10282 ft | 302 kts | 46° |
| 2026-05-06 10:34 | 25.89538 | -79.90656 | 10412 ft | 321 kts | 46° |
| 2026-05-06 10:34 | 25.90532 | -79.89394 | 10507 ft | 333 kts | 46° |
| 2026-05-06 10:34 | 25.92094 | -79.87410 | 10632 ft | 349 kts | 46° |
| 2026-05-06 10:34 | 25.93730 | -79.85328 | 10751 ft | 365 kts | 46° |
| 2026-05-06 10:35 | 25.95432 | -79.83160 | 10847 ft | 379 kts | 46° |
| 2026-05-06 10:35 | 25.97193 | -79.80913 | 10936 ft | 391 kts | 46° |
| 2026-05-06 10:35 | 25.99000 | -79.78606 | 11100 ft | 401 kts | 47° |
| 2026-05-06 10:35 | 26.00848 | -79.76245 | 11362 ft | 406 kts | 47° |
| 2026-05-06 10:36 | 26.02697 | -79.73880 | 11793 ft | 406 kts | 47° |
| 2026-05-06 10:36 | 26.04553 | -79.71506 | 12208 ft | 407 kts | 47° |
| 2026-05-06 10:36 | 26.06417 | -79.69122 | 12588 ft | 410 kts | 46° |
| 2026-05-06 10:36 | 26.08293 | -79.66724 | 12961 ft | 412 kts | 46° |
| 2026-05-06 10:37 | 26.10180 | -79.64310 | 13339 ft | 415 kts | 46° |
| 2026-05-06 10:37 | 26.12012 | -79.61817 | 13721 ft | 418 kts | 51° |
| 2026-05-06 10:37 | 26.13708 | -79.59172 | 14085 ft | 421 kts | 53° |
| 2026-05-06 10:37 | 26.15364 | -79.56469 | 14430 ft | 423 kts | 53° |
| 2026-05-06 10:38 | 26.17021 | -79.53758 | 14805 ft | 424 kts | 53° |
| 2026-05-06 10:38 | 26.18700 | -79.51048 | 15162 ft | 426 kts | 52° |
| 2026-05-06 10:38 | 26.20400 | -79.48337 | 15488 ft | 429 kts | 52° |
| 2026-05-06 10:38 | 26.22123 | -79.45611 | 15840 ft | 431 kts | 52° |
| 2026-05-06 10:39 | 26.23853 | -79.42882 | 16195 ft | 432 kts | 52° |
| 2026-05-06 10:39 | 26.25593 | -79.40137 | 16527 ft | 434 kts | 52° |
| 2026-05-06 10:39 | 26.27338 | -79.37381 | 16850 ft | 436 kts | 52° |
| 2026-05-06 10:39 | 26.29205 | -79.34722 | 17144 ft | 435 kts | 41° |
| 2026-05-06 10:40 | 26.31633 | -79.32758 | 17448 ft | 431 kts | 28° |
| 2026-05-06 10:40 | 26.34210 | -79.31027 | 17801 ft | 433 kts | 29° |
| 2026-05-06 10:40 | 26.36779 | -79.29261 | 18091 ft | 435 kts | 29° |
| 2026-05-06 10:40 | 26.39349 | -79.27465 | 18362 ft | 437 kts | 30° |
| 2026-05-06 10:41 | 26.41924 | -79.25647 | 18611 ft | 439 kts | 30° |
| 2026-05-06 10:41 | 26.44503 | -79.23814 | 18852 ft | 441 kts | 30° |
| 2026-05-06 10:41 | 26.47093 | -79.21966 | 19092 ft | 443 kts | 30° |
| 2026-05-06 10:41 | 26.49696 | -79.20105 | 19300 ft | 445 kts | 30° |
| 2026-05-06 10:42 | 26.52307 | -79.18239 | 19525 ft | 447 kts | 30° |
| 2026-05-06 10:42 | 26.54929 | -79.16364 | 19754 ft | 448 kts | 29° |
| 2026-05-06 10:42 | 26.57525 | -79.14507 | 19974 ft | 450 kts | 29° |
| 2026-05-06 10:42 | 26.60163 | -79.12620 | 20183 ft | 451 kts | 29° |
| 2026-05-06 10:43 | 26.62811 | -79.10724 | 20388 ft | 453 kts | 29° |
| 2026-05-06 10:43 | 26.65470 | -79.08820 | 20597 ft | 455 kts | 29° |
| 2026-05-06 10:43 | 26.68138 | -79.06908 | 20791 ft | 456 kts | 29° |
| 2026-05-06 10:44 | 26.73495 | -79.03066 | 21211 ft | 458 kts | 29° |
| 2026-05-06 10:44 | 26.76178 | -79.01140 | 21396 ft | 460 kts | 29° |
| 2026-05-06 10:44 | 26.78878 | -78.99201 | 21560 ft | 462 kts | 29° |
| 2026-05-06 10:44 | 26.81586 | -78.97256 | 21740 ft | 463 kts | 29° |
| 2026-05-06 10:45 | 26.84298 | -78.95306 | 21919 ft | 464 kts | 29° |
| 2026-05-06 10:45 | 26.87017 | -78.93349 | 22091 ft | 465 kts | 29° |
| 2026-05-06 10:45 | 26.89745 | -78.91385 | 22256 ft | 467 kts | 29° |
| 2026-05-06 10:45 | 26.92477 | -78.89418 | 22414 ft | 468 kts | 29° |
| 2026-05-06 10:46 | 26.95220 | -78.87441 | 22567 ft | 469 kts | 29° |
| 2026-05-06 10:46 | 26.97969 | -78.85458 | 22720 ft | 470 kts | 29° |
| 2026-05-06 10:46 | 27.00720 | -78.83473 | 22862 ft | 471 kts | 29° |
| 2026-05-06 10:46 | 27.03480 | -78.81481 | 23018 ft | 472 kts | 28° |
| 2026-05-06 10:47 | 27.06250 | -78.79479 | 23104 ft | 475 kts | 28° |
| 2026-05-06 10:47 | 27.09030 | -78.77470 | 23235 ft | 476 kts | 28° |
| 2026-05-06 10:47 | 27.11812 | -78.75458 | 23386 ft | 476 kts | 28° |
| 2026-05-06 10:47 | 27.14604 | -78.73437 | 23524 ft | 477 kts | 28° |
| 2026-05-06 10:48 | 27.17397 | -78.71413 | 23643 ft | 478 kts | 28° |
| 2026-05-06 10:48 | 27.20197 | -78.69384 | 23751 ft | 479 kts | 28° |
| 2026-05-06 10:48 | 27.22998 | -78.67352 | 23902 ft | 479 kts | 28° |
| 2026-05-06 10:48 | 27.25783 | -78.65331 | 24162 ft | 475 kts | 28° |
| 2026-05-06 10:49 | 27.28653 | -78.63540 | 24251 ft | 469 kts | 16° |
| 2026-05-06 10:49 | 27.31803 | -78.62732 | 24300 ft | 463 kts | 2° |
| 2026-05-06 10:49 | 27.35004 | -78.62360 | 24424 ft | 462 kts | 2° |
| 2026-05-06 10:49 | 27.38210 | -78.61992 | 24523 ft | 463 kts | 2° |
| 2026-05-06 10:50 | 27.41417 | -78.61615 | 24613 ft | 464 kts | 2° |
| 2026-05-06 10:50 | 27.44592 | -78.61230 | 24715 ft | 465 kts | 2° |
| 2026-05-06 10:50 | 27.47804 | -78.60828 | 24823 ft | 465 kts | 2° |
| 2026-05-06 10:50 | 27.51024 | -78.60417 | 24927 ft | 465 kts | 3° |
| 2026-05-06 10:51 | 27.54244 | -78.60001 | 25024 ft | 466 kts | 3° |
| 2026-05-06 10:51 | 27.57467 | -78.59582 | 25120 ft | 467 kts | 3° |
| 2026-05-06 10:51 | 27.60697 | -78.59161 | 25227 ft | 467 kts | 2° |
| 2026-05-06 10:51 | 27.63927 | -78.58740 | 25316 ft | 468 kts | 2° |
| 2026-05-06 10:52 | 27.67160 | -78.58318 | 25418 ft | 468 kts | 2° |
| 2026-05-06 10:52 | 27.70401 | -78.57896 | 25504 ft | 468 kts | 2° |
| 2026-05-06 10:52 | 27.73635 | -78.57474 | 25620 ft | 468 kts | 2° |
| 2026-05-06 10:52 | 27.76869 | -78.57052 | 25767 ft | 467 kts | 2° |
| 2026-05-06 10:53 | 27.80094 | -78.56631 | 25928 ft | 466 kts | 2° |
| 2026-05-06 10:53 | 27.83311 | -78.56212 | 26078 ft | 465 kts | 2° |
| 2026-05-06 10:53 | 27.86533 | -78.55791 | 26225 ft | 465 kts | 2° |
| 2026-05-06 10:53 | 27.89742 | -78.55372 | 26398 ft | 464 kts | 2° |
| 2026-05-06 10:54 | 27.92942 | -78.54953 | 26592 ft | 462 kts | 2° |
| 2026-05-06 10:54 | 27.96131 | -78.54536 | 26798 ft | 461 kts | 2° |
| 2026-05-06 10:54 | 27.99312 | -78.54120 | 26982 ft | 460 kts | 2° |
| 2026-05-06 10:54 | 28.02492 | -78.53704 | 27146 ft | 460 kts | 2° |
| 2026-05-06 10:55 | 28.05663 | -78.53288 | 27340 ft | 459 kts | 2° |
| 2026-05-06 10:55 | 28.08834 | -78.52873 | 27556 ft | 458 kts | 2° |
| 2026-05-06 10:55 | 28.11992 | -78.52458 | 27784 ft | 456 kts | 2° |
| 2026-05-06 10:55 | 28.15138 | -78.52045 | 28028 ft | 455 kts | 2° |
| 2026-05-06 10:56 | 28.18277 | -78.51633 | 28297 ft | 454 kts | 2° |
| 2026-05-06 10:56 | 28.21410 | -78.51221 | 28569 ft | 452 kts | 2° |
| 2026-05-06 10:56 | 28.24529 | -78.50811 | 28867 ft | 450 kts | 2° |
| 2026-05-06 10:56 | 28.27640 | -78.50402 | 29149 ft | 449 kts | 1° |
| 2026-05-06 10:57 | 28.30739 | -78.49994 | 29451 ft | 448 kts | 1° |
| 2026-05-06 10:57 | 28.33837 | -78.49586 | 29761 ft | 446 kts | 1° |
| 2026-05-06 10:57 | 28.36914 | -78.49180 | 30090 ft | 445 kts | 1° |
| 2026-05-06 10:57 | 28.39982 | -78.48775 | 30381 ft | 443 kts | 1° |
| 2026-05-06 10:58 | 28.43039 | -78.48372 | 30671 ft | 442 kts | 1° |
| 2026-05-06 10:58 | 28.46087 | -78.47970 | 30972 ft | 440 kts | 1° |
| 2026-05-06 10:58 | 28.49087 | -78.47573 | 31307 ft | 438 kts | 1° |
| 2026-05-06 10:58 | 28.52147 | -78.47169 | 31630 ft | 436 kts | 1° |
| 2026-05-06 10:59 | 28.55157 | -78.46771 | 31954 ft | 435 kts | 1° |
| 2026-05-06 10:59 | 28.58154 | -78.46374 | 32294 ft | 433 kts | 1° |
| 2026-05-06 10:59 | 28.61097 | -78.45984 | 32626 ft | 431 kts | 1° |
| 2026-05-06 10:59 | 28.64067 | -78.45591 | 32971 ft | 429 kts | 1° |
| 2026-05-06 11:00 | 28.67026 | -78.45199 | 33297 ft | 427 kts | 1° |
| 2026-05-06 11:00 | 28.69978 | -78.44807 | 33595 ft | 426 kts | 0° |
| 2026-05-06 11:00 | 28.72918 | -78.44417 | 33929 ft | 424 kts | 0° |
| 2026-05-06 11:00 | 28.75849 | -78.44028 | 34110 ft | 425 kts | 0° |
| 2026-05-06 11:01 | 28.78792 | -78.43640 | 34094 ft | 426 kts | 0° |
| 2026-05-06 11:01 | 28.84674 | -78.42858 | 34094 ft | 424 kts | 0° |
| 2026-05-06 11:02 | 28.90538 | -78.42077 | 34091 ft | 423 kts | 0° |
| 2026-05-06 11:02 | 28.96383 | -78.41298 | 34090 ft | 422 kts | 0° |
| 2026-05-06 11:03 | 29.02217 | -78.40520 | 34090 ft | 422 kts | 0° |
| 2026-05-06 11:03 | 29.08054 | -78.39741 | 34102 ft | 422 kts | 0° |
| 2026-05-06 11:04 | 29.13899 | -78.38960 | 34095 ft | 423 kts | 0° |
| 2026-05-06 11:04 | 29.19760 | -78.38176 | 34094 ft | 424 kts | 0° |
| 2026-05-06 11:05 | 29.25630 | -78.37389 | 34093 ft | 425 kts | 0° |
| 2026-05-06 11:05 | 29.31515 | -78.36599 | 34097 ft | 426 kts | 0° |
| 2026-05-06 11:06 | 29.37419 | -78.35806 | 34100 ft | 427 kts | 0° |
| 2026-05-06 11:06 | 29.43321 | -78.35011 | 34097 ft | 427 kts | 0° |
| 2026-05-06 11:07 | 29.49168 | -78.34548 | 34080 ft | 417 kts | 347° |
| 2026-05-06 11:07 | 29.54719 | -78.36149 | 34107 ft | 411 kts | 339° |
| 2026-05-06 11:08 | 29.60201 | -78.38005 | 34111 ft | 411 kts | 340° |
| 2026-05-06 11:08 | 29.65703 | -78.39833 | 34099 ft | 412 kts | 340° |
| 2026-05-06 11:09 | 29.71217 | -78.41634 | 34094 ft | 412 kts | 340° |
| 2026-05-06 11:09 | 29.76728 | -78.43427 | 34095 ft | 412 kts | 340° |
| 2026-05-06 11:10 | 29.82243 | -78.45221 | 34095 ft | 412 kts | 340° |
| 2026-05-06 11:10 | 29.87753 | -78.47017 | 34099 ft | 412 kts | 340° |
| 2026-05-06 11:11 | 29.93262 | -78.48816 | 34107 ft | 412 kts | 340° |
| 2026-05-06 11:11 | 29.98776 | -78.50618 | 34099 ft | 411 kts | 340° |
| 2026-05-06 11:12 | 30.04282 | -78.52419 | 34093 ft | 411 kts | 340° |
| 2026-05-06 11:12 | 30.09782 | -78.54221 | 34101 ft | 411 kts | 340° |
| 2026-05-06 11:13 | 30.15388 | -78.55434 | 34106 ft | 418 kts | 351° |
| 2026-05-06 11:13 | 30.21263 | -78.55067 | 34106 ft | 427 kts | 0° |
| 2026-05-06 11:14 | 30.27162 | -78.54162 | 34100 ft | 427 kts | 0° |
| 2026-05-06 11:14 | 30.33060 | -78.53289 | 34099 ft | 427 kts | 0° |
| 2026-05-06 11:15 | 30.38962 | -78.52438 | 34097 ft | 427 kts | 0° |
| 2026-05-06 11:15 | 30.44865 | -78.51566 | 34109 ft | 427 kts | 0° |
| 2026-05-06 11:16 | 30.50750 | -78.50613 | 34095 ft | 427 kts | 0° |
| 2026-05-06 11:16 | 30.56625 | -78.49647 | 34098 ft | 426 kts | 0° |
| 2026-05-06 11:17 | 30.62491 | -78.48690 | 34099 ft | 425 kts | 0° |
| 2026-05-06 11:17 | 30.68347 | -78.47740 | 34096 ft | 425 kts | 0° |
| 2026-05-06 11:18 | 30.74198 | -78.46790 | 34120 ft | 424 kts | 360° |
| 2026-05-06 11:18 | 30.80046 | -78.45841 | 34100 ft | 424 kts | 360° |
| 2026-05-06 11:19 | 30.85896 | -78.44889 | 34097 ft | 424 kts | 360° |
| 2026-05-06 11:19 | 30.91741 | -78.43937 | 34097 ft | 424 kts | 360° |
| 2026-05-06 11:20 | 30.97580 | -78.42985 | 34098 ft | 424 kts | 360° |
| 2026-05-06 11:20 | 31.02432 | -78.42192 | 34112 ft | 424 kts | 359° |
| 2026-05-06 11:21 | 31.08274 | -78.41237 | 34096 ft | 424 kts | 359° |
| 2026-05-06 11:21 | 31.14104 | -78.40283 | 34099 ft | 423 kts | 359° |
| 2026-05-06 11:22 | 31.19942 | -78.39327 | 34100 ft | 423 kts | 359° |
| 2026-05-06 11:22 | 31.25775 | -78.38370 | 34098 ft | 423 kts | 359° |
| 2026-05-06 11:23 | 31.31613 | -78.37411 | 34101 ft | 424 kts | 359° |
| 2026-05-06 11:23 | 31.37456 | -78.36450 | 34098 ft | 424 kts | 359° |
| 2026-05-06 11:24 | 31.43291 | -78.35489 | 34098 ft | 423 kts | 359° |
| 2026-05-06 11:24 | 31.49130 | -78.34526 | 34099 ft | 423 kts | 359° |
| 2026-05-06 11:25 | 31.54966 | -78.33562 | 34120 ft | 424 kts | 359° |
| 2026-05-06 11:25 | 31.60775 | -78.32602 | 34106 ft | 425 kts | 359° |
| 2026-05-06 11:26 | 31.66634 | -78.31633 | 34100 ft | 425 kts | 359° |
| 2026-05-06 11:26 | 31.72499 | -78.30661 | 34097 ft | 426 kts | 359° |
| 2026-05-06 11:27 | 31.78367 | -78.29686 | 34098 ft | 426 kts | 359° |
| 2026-05-06 11:27 | 31.84243 | -78.28710 | 34106 ft | 427 kts | 359° |
| 2026-05-06 11:28 | 31.90133 | -78.27730 | 34101 ft | 428 kts | 359° |
| 2026-05-06 11:28 | 31.96030 | -78.26747 | 34098 ft | 428 kts | 359° |
| 2026-05-06 11:29 | 32.01933 | -78.25762 | 34095 ft | 428 kts | 359° |
| 2026-05-06 11:29 | 32.07832 | -78.24857 | 34125 ft | 427 kts | 359° |
| 2026-05-06 11:30 | 32.13744 | -78.24016 | 34114 ft | 428 kts | 359° |
| 2026-05-06 11:30 | 32.19676 | -78.23168 | 34099 ft | 430 kts | 359° |
| 2026-05-06 11:31 | 32.25618 | -78.22306 | 34103 ft | 431 kts | 359° |
| 2026-05-06 11:31 | 32.31575 | -78.21436 | 34097 ft | 431 kts | 359° |
| 2026-05-06 11:32 | 32.37540 | -78.20563 | 34105 ft | 432 kts | 359° |
| 2026-05-06 11:32 | 32.43517 | -78.19686 | 34098 ft | 433 kts | 359° |
| 2026-05-06 11:33 | 32.49494 | -78.18808 | 34097 ft | 433 kts | 359° |
| 2026-05-06 11:33 | 32.55436 | -78.17935 | 34096 ft | 433 kts | 359° |
| 2026-05-06 11:34 | 32.61414 | -78.17054 | 34118 ft | 433 kts | 359° |
| 2026-05-06 11:34 | 32.67388 | -78.16173 | 34096 ft | 432 kts | 359° |
| 2026-05-06 11:35 | 32.73356 | -78.15293 | 34090 ft | 432 kts | 359° |
| 2026-05-06 11:35 | 32.79313 | -78.14413 | 34093 ft | 431 kts | 359° |
| 2026-05-06 11:36 | 32.85267 | -78.13532 | 34089 ft | 431 kts | 359° |
| 2026-05-06 11:36 | 32.91215 | -78.12651 | 34090 ft | 431 kts | 359° |
| 2026-05-06 11:37 | 32.97163 | -78.11769 | 34087 ft | 431 kts | 359° |
| 2026-05-06 11:37 | 33.03112 | -78.10885 | 34088 ft | 431 kts | 359° |
| 2026-05-06 11:38 | 33.09057 | -78.10001 | 34087 ft | 431 kts | 359° |
| 2026-05-06 11:38 | 33.15008 | -78.09113 | 34092 ft | 430 kts | 358° |
| 2026-05-06 11:39 | 33.20927 | -78.08229 | 34096 ft | 428 kts | 358° |
| 2026-05-06 11:39 | 33.26822 | -78.07348 | 34084 ft | 426 kts | 358° |
| 2026-05-06 11:40 | 33.32696 | -78.06470 | 34078 ft | 425 kts | 358° |
| 2026-05-06 11:40 | 33.38557 | -78.05593 | 34108 ft | 424 kts | 357° |
| 2026-05-06 11:41 | 33.44396 | -78.04716 | 34083 ft | 422 kts | 357° |
| 2026-05-06 11:41 | 33.50206 | -78.03843 | 34078 ft | 420 kts | 357° |
| 2026-05-06 11:42 | 33.55999 | -78.02973 | 34084 ft | 419 kts | 357° |
| 2026-05-06 11:42 | 33.61786 | -78.02102 | 34080 ft | 418 kts | 357° |
| 2026-05-06 11:43 | 33.67561 | -78.01231 | 34083 ft | 418 kts | 356° |
| 2026-05-06 11:43 | 33.73284 | -78.00367 | 34079 ft | 417 kts | 356° |
| 2026-05-06 11:44 | 33.81902 | -77.99064 | 34082 ft | 416 kts | 356° |
| 2026-05-06 11:44 | 33.87635 | -77.98195 | 34085 ft | 415 kts | 356° |
| 2026-05-06 11:45 | 33.93368 | -77.97305 | 34088 ft | 415 kts | 356° |
| 2026-05-06 11:45 | 33.99084 | -77.96404 | 34081 ft | 414 kts | 356° |
| 2026-05-06 11:46 | 34.04798 | -77.95504 | 34066 ft | 413 kts | 357° |
| 2026-05-06 11:46 | 34.10487 | -77.94606 | 34071 ft | 412 kts | 356° |
| 2026-05-06 11:47 | 34.16173 | -77.93712 | 34095 ft | 412 kts | 357° |
| 2026-05-06 11:47 | 34.21856 | -77.92817 | 34090 ft | 412 kts | 357° |
| 2026-05-06 11:48 | 34.27549 | -77.91918 | 34085 ft | 412 kts | 357° |
| 2026-05-06 11:48 | 34.33239 | -77.91018 | 34084 ft | 412 kts | 357° |
| 2026-05-06 11:49 | 34.38931 | -77.90117 | 34078 ft | 413 kts | 357° |
| 2026-05-06 11:49 | 34.44639 | -77.89213 | 34089 ft | 415 kts | 358° |
| 2026-05-06 11:50 | 34.50371 | -77.88303 | 34076 ft | 416 kts | 358° |
| 2026-05-06 11:50 | 34.56134 | -77.87387 | 34078 ft | 418 kts | 358° |
| 2026-05-06 11:51 | 34.61912 | -77.86466 | 34078 ft | 419 kts | 358° |
| 2026-05-06 11:51 | 34.67669 | -77.85548 | 34080 ft | 421 kts | 358° |
| 2026-05-06 11:52 | 34.73494 | -77.84617 | 34077 ft | 423 kts | 358° |
| 2026-05-06 11:52 | 34.79328 | -77.83682 | 34084 ft | 423 kts | 358° |
| 2026-05-06 11:53 | 34.85168 | -77.82747 | 34074 ft | 424 kts | 358° |
| 2026-05-06 11:53 | 34.91000 | -77.81204 | 34090 ft | 434 kts | 5° |
| 2026-05-06 11:54 | 34.96832 | -77.79168 | 34080 ft | 436 kts | 5° |
| 2026-05-06 11:54 | 35.02660 | -77.77132 | 34073 ft | 436 kts | 5° |
| 2026-05-06 11:55 | 35.08508 | -77.75129 | 34073 ft | 436 kts | 5° |
| 2026-05-06 11:55 | 35.14359 | -77.73141 | 34069 ft | 436 kts | 5° |
| 2026-05-06 11:56 | 35.20213 | -77.71155 | 34081 ft | 437 kts | 5° |
| 2026-05-06 11:56 | 35.26076 | -77.69160 | 34080 ft | 437 kts | 5° |
| 2026-05-06 11:57 | 35.31944 | -77.67160 | 34086 ft | 438 kts | 5° |
| 2026-05-06 11:57 | 35.37813 | -77.65156 | 34082 ft | 438 kts | 5° |
| 2026-05-06 11:58 | 35.43679 | -77.63150 | 34080 ft | 438 kts | 5° |
| 2026-05-06 11:58 | 35.49539 | -77.61143 | 34078 ft | 437 kts | 5° |
| 2026-05-06 11:59 | 35.55403 | -77.59132 | 34066 ft | 437 kts | 5° |
| 2026-05-06 11:59 | 35.61258 | -77.57120 | 34087 ft | 437 kts | 5° |
| 2026-05-06 12:00 | 35.67113 | -77.55105 | 34071 ft | 437 kts | 5° |
| 2026-05-06 12:00 | 35.72976 | -77.53086 | 34067 ft | 438 kts | 5° |
| 2026-05-06 12:01 | 35.78846 | -77.51127 | 34062 ft | 437 kts | 4° |
| 2026-05-06 12:01 | 35.84695 | -77.49246 | 34077 ft | 437 kts | 4° |
| 2026-05-06 12:02 | 35.90625 | -77.47332 | 34061 ft | 438 kts | 4° |
| 2026-05-06 12:02 | 35.96527 | -77.45414 | 34057 ft | 439 kts | 4° |
| 2026-05-06 12:03 | 36.02403 | -77.43495 | 34057 ft | 440 kts | 4° |
| 2026-05-06 12:03 | 36.08330 | -77.41556 | 34082 ft | 440 kts | 4° |
| 2026-05-06 12:04 | 36.14266 | -77.39613 | 34062 ft | 442 kts | 4° |
| 2026-05-06 12:04 | 36.20216 | -77.37661 | 34049 ft | 443 kts | 4° |
| 2026-05-06 12:05 | 36.26173 | -77.35703 | 34059 ft | 443 kts | 4° |
| 2026-05-06 12:05 | 36.32142 | -77.33739 | 34070 ft | 444 kts | 4° |
| 2026-05-06 12:06 | 36.38125 | -77.31767 | 34055 ft | 445 kts | 4° |
| 2026-05-06 12:06 | 36.44116 | -77.29788 | 34048 ft | 446 kts | 4° |
| 2026-05-06 12:07 | 36.50120 | -77.27802 | 34042 ft | 446 kts | 4° |
| 2026-05-06 12:07 | 36.55110 | -77.26147 | 34061 ft | 447 kts | 4° |
| 2026-05-06 12:08 | 36.61123 | -77.24148 | 34042 ft | 448 kts | 4° |
| 2026-05-06 12:08 | 36.67144 | -77.22138 | 34036 ft | 448 kts | 5° |
| 2026-05-06 12:09 | 36.73157 | -77.20130 | 34029 ft | 447 kts | 4° |
| 2026-05-06 12:09 | 36.79166 | -77.18124 | 34047 ft | 446 kts | 4° |
| 2026-05-06 12:10 | 36.85165 | -77.16119 | 34017 ft | 446 kts | 4° |
| 2026-05-06 12:10 | 36.91162 | -77.14109 | 34017 ft | 446 kts | 4° |
| 2026-05-06 12:11 | 36.97151 | -77.12097 | 34023 ft | 446 kts | 4° |
| 2026-05-06 12:11 | 37.03143 | -77.10083 | 34030 ft | 446 kts | 4° |
| 2026-05-06 12:12 | 37.09148 | -77.08061 | 34023 ft | 447 kts | 4° |
| 2026-05-06 12:12 | 37.15166 | -77.06030 | 34019 ft | 449 kts | 4° |
| 2026-05-06 12:13 | 37.21169 | -77.04001 | 34008 ft | 450 kts | 4° |
| 2026-05-06 12:13 | 37.27214 | -77.01954 | 34000 ft | 451 kts | 4° |
| 2026-05-06 12:14 | 37.33273 | -76.99898 | 33994 ft | 451 kts | 4° |
| 2026-05-06 12:14 | 37.39216 | -76.97878 | 33988 ft | 451 kts | 4° |
| 2026-05-06 12:15 | 37.45278 | -76.95814 | 33988 ft | 452 kts | 5° |
| 2026-05-06 12:15 | 37.48269 | -76.94426 | 33993 ft | 467 kts | 15° |
| 2026-05-06 12:15 | 37.51171 | -76.92544 | 33998 ft | 471 kts | 18° |
| 2026-05-06 12:16 | 37.56906 | -76.88525 | 33970 ft | 472 kts | 19° |
| 2026-05-06 12:16 | 37.62648 | -76.84566 | 33993 ft | 469 kts | 18° |
| 2026-05-06 12:17 | 37.68397 | -76.80709 | 33988 ft | 467 kts | 18° |
| 2026-05-06 12:17 | 37.74142 | -76.76878 | 33980 ft | 466 kts | 18° |
| 2026-05-06 12:18 | 37.79874 | -76.73041 | 33982 ft | 466 kts | 18° |
| 2026-05-06 12:18 | 37.85594 | -76.69203 | 33964 ft | 465 kts | 18° |
| 2026-05-06 12:19 | 37.91328 | -76.65440 | 33956 ft | 463 kts | 16° |
| 2026-05-06 12:19 | 37.97106 | -76.61814 | 33974 ft | 464 kts | 16° |
| 2026-05-06 12:20 | 38.02902 | -76.58171 | 33974 ft | 466 kts | 16° |
| 2026-05-06 12:20 | 38.08670 | -76.54511 | 33971 ft | 467 kts | 16° |
| 2026-05-06 12:21 | 38.14530 | -76.50776 | 33980 ft | 470 kts | 16° |
| 2026-05-06 12:21 | 38.20380 | -76.47041 | 33978 ft | 471 kts | 17° |
| 2026-05-06 12:22 | 38.26215 | -76.43311 | 33968 ft | 473 kts | 17° |
| 2026-05-06 12:22 | 38.31967 | -76.39111 | 33966 ft | 486 kts | 27° |
| 2026-05-06 12:23 | 38.37326 | -76.33744 | 33970 ft | 491 kts | 29° |
| 2026-05-06 12:23 | 38.42656 | -76.28306 | 33961 ft | 490 kts | 28° |
| 2026-05-06 12:24 | 38.48045 | -76.22975 | 33966 ft | 490 kts | 28° |
| 2026-05-06 12:24 | 38.53453 | -76.17682 | 33998 ft | 490 kts | 27° |
| 2026-05-06 12:25 | 38.58868 | -76.12365 | 33966 ft | 491 kts | 28° |
| 2026-05-06 12:25 | 38.64279 | -76.07054 | 33970 ft | 490 kts | 27° |
| 2026-05-06 12:26 | 38.69766 | -76.01925 | 33951 ft | 488 kts | 26° |
| 2026-05-06 12:26 | 38.75313 | -75.96809 | 33133 ft | 499 kts | 26° |
| 2026-05-06 12:27 | 38.78121 | -75.94197 | 32365 ft | 498 kts | 27° |
| 2026-05-06 12:27 | 38.80924 | -75.91571 | 31505 ft | 500 kts | 28° |
| 2026-05-06 12:27 | 38.83731 | -75.88933 | 30642 ft | 501 kts | 28° |
| 2026-05-06 12:27 | 38.86552 | -75.86279 | 29666 ft | 504 kts | 29° |
| 2026-05-06 12:28 | 38.89387 | -75.83611 | 28603 ft | 506 kts | 30° |
| 2026-05-06 12:28 | 38.92230 | -75.80934 | 27585 ft | 508 kts | 30° |
| 2026-05-06 12:28 | 38.95082 | -75.78247 | 26734 ft | 507 kts | 31° |
| 2026-05-06 12:28 | 38.97865 | -75.75612 | 26554 ft | 490 kts | 31° |
| 2026-05-06 12:29 | 39.00585 | -75.73037 | 26266 ft | 495 kts | 31° |
| 2026-05-06 12:29 | 39.03431 | -75.70353 | 25985 ft | 506 kts | 31° |
| 2026-05-06 12:29 | 39.06245 | -75.67696 | 25686 ft | 509 kts | 31° |
| 2026-05-06 12:29 | 39.09085 | -75.65001 | 25384 ft | 505 kts | 31° |
| 2026-05-06 12:30 | 39.11903 | -75.62321 | 25091 ft | 502 kts | 31° |
| 2026-05-06 12:30 | 39.14704 | -75.59655 | 24823 ft | 499 kts | 32° |
| 2026-05-06 12:30 | 39.17494 | -75.57000 | 24535 ft | 497 kts | 32° |
| 2026-05-06 12:30 | 39.20273 | -75.54355 | 24236 ft | 496 kts | 32° |
| 2026-05-06 12:31 | 39.23040 | -75.51719 | 23958 ft | 494 kts | 32° |
| 2026-05-06 12:31 | 39.25838 | -75.49118 | 23510 ft | 499 kts | 31° |
| 2026-05-06 12:31 | 39.28706 | -75.46576 | 23024 ft | 500 kts | 30° |
| 2026-05-06 12:31 | 39.31581 | -75.44069 | 22546 ft | 496 kts | 30° |
| 2026-05-06 12:32 | 39.34428 | -75.41583 | 22110 ft | 492 kts | 30° |
| 2026-05-06 12:32 | 39.37252 | -75.39098 | 21680 ft | 489 kts | 31° |
| 2026-05-06 12:32 | 39.40051 | -75.36619 | 21235 ft | 487 kts | 31° |
| 2026-05-06 12:32 | 39.42832 | -75.34142 | 20815 ft | 485 kts | 31° |
| 2026-05-06 12:33 | 39.45601 | -75.31671 | 20392 ft | 483 kts | 31° |
| 2026-05-06 12:33 | 39.48358 | -75.29209 | 19975 ft | 481 kts | 32° |
| 2026-05-06 12:33 | 39.51113 | -75.26747 | 19555 ft | 480 kts | 32° |
| 2026-05-06 12:33 | 39.53832 | -75.24246 | 19145 ft | 480 kts | 33° |
| 2026-05-06 12:34 | 39.56535 | -75.21704 | 18704 ft | 480 kts | 34° |
| 2026-05-06 12:34 | 39.59228 | -75.19155 | 18284 ft | 479 kts | 34° |
| 2026-05-06 12:34 | 39.61911 | -75.16619 | 17806 ft | 477 kts | 34° |
| 2026-05-06 12:34 | 39.64581 | -75.14106 | 17360 ft | 473 kts | 34° |
| 2026-05-06 12:35 | 39.67235 | -75.11612 | 16930 ft | 469 kts | 34° |
| 2026-05-06 12:35 | 39.69891 | -75.09182 | 16497 ft | 465 kts | 32° |
| 2026-05-06 12:35 | 39.72573 | -75.06880 | 16071 ft | 461 kts | 31° |
| 2026-05-06 12:35 | 39.75257 | -75.04622 | 15645 ft | 458 kts | 31° |
| 2026-05-06 12:36 | 39.77918 | -75.02376 | 15228 ft | 455 kts | 31° |
| 2026-05-06 12:36 | 39.80561 | -75.00118 | 14811 ft | 453 kts | 32° |
| 2026-05-06 12:36 | 39.83182 | -74.97858 | 14402 ft | 451 kts | 32° |
| 2026-05-06 12:36 | 39.85781 | -74.95599 | 13995 ft | 448 kts | 33° |
| 2026-05-06 12:37 | 39.88342 | -74.93290 | 13566 ft | 447 kts | 34° |
| 2026-05-06 12:37 | 39.90878 | -74.90972 | 13114 ft | 445 kts | 34° |
| 2026-05-06 12:37 | 39.93314 | -74.88516 | 12714 ft | 442 kts | 43° |
| 2026-05-06 12:37 | 39.95394 | -74.85585 | 12366 ft | 438 kts | 50° |
| 2026-05-06 12:38 | 39.97354 | -74.82583 | 12002 ft | 431 kts | 50° |
| 2026-05-06 12:38 | 39.99292 | -74.79667 | 11651 ft | 420 kts | 49° |
| 2026-05-06 12:38 | 40.01192 | -74.76901 | 11317 ft | 410 kts | 48° |
| 2026-05-06 12:38 | 40.03088 | -74.74184 | 10990 ft | 401 kts | 47° |
| 2026-05-06 12:39 | 40.04949 | -74.71528 | 10685 ft | 392 kts | 47° |
| 2026-05-06 12:39 | 40.06769 | -74.68920 | 10373 ft | 385 kts | 48° |
| 2026-05-06 12:39 | 40.08551 | -74.66360 | 10036 ft | 378 kts | 48° |
| 2026-05-06 12:39 | 40.10297 | -74.63847 | 9876 ft | 367 kts | 48° |
| 2026-05-06 12:40 | 40.11975 | -74.61431 | 9869 ft | 352 kts | 48° |
| 2026-05-06 12:40 | 40.13588 | -74.59107 | 9847 ft | 338 kts | 48° |
| 2026-05-06 12:40 | 40.15133 | -74.56881 | 9819 ft | 324 kts | 48° |
| 2026-05-06 12:40 | 40.16650 | -74.54693 | 9328 ft | 329 kts | 48° |
| 2026-05-06 12:41 | 40.18116 | -74.52576 | 9108 ft | 323 kts | 48° |
| 2026-05-06 12:41 | 40.19623 | -74.50401 | 8924 ft | 317 kts | 48° |
| 2026-05-06 12:41 | 40.21114 | -74.48324 | 8765 ft | 310 kts | 44° |
| 2026-05-06 12:41 | 40.22659 | -74.46382 | 8640 ft | 307 kts | 43° |
| 2026-05-06 12:42 | 40.24215 | -74.44459 | 8520 ft | 308 kts | 43° |
| 2026-05-06 12:42 | 40.25774 | -74.42516 | 8400 ft | 311 kts | 44° |
| 2026-05-06 12:42 | 40.27343 | -74.40544 | 8262 ft | 314 kts | 44° |
| 2026-05-06 12:42 | 40.28914 | -74.38561 | 8129 ft | 313 kts | 44° |
| 2026-05-06 12:43 | 40.30476 | -74.36585 | 7983 ft | 312 kts | 44° |
| 2026-05-06 12:43 | 40.32035 | -74.34611 | 7831 ft | 311 kts | 44° |
| 2026-05-06 12:43 | 40.33587 | -74.32646 | 7698 ft | 310 kts | 44° |
| 2026-05-06 12:43 | 40.35127 | -74.30695 | 7642 ft | 306 kts | 44° |
| 2026-05-06 12:44 | 40.36656 | -74.28756 | 7509 ft | 305 kts | 44° |
| 2026-05-06 12:44 | 40.38178 | -74.26825 | 7387 ft | 304 kts | 44° |
| 2026-05-06 12:44 | 40.39698 | -74.24895 | 7239 ft | 304 kts | 44° |
| 2026-05-06 12:44 | 40.41214 | -74.22968 | 7108 ft | 303 kts | 44° |
| 2026-05-06 12:45 | 40.42731 | -74.21039 | 6979 ft | 303 kts | 44° |
| 2026-05-06 12:45 | 40.44245 | -74.19113 | 6847 ft | 303 kts | 44° |
| 2026-05-06 12:45 | 40.47187 | -74.15366 | 6602 ft | 303 kts | 44° |
| 2026-05-06 12:46 | 40.48689 | -74.13451 | 6505 ft | 300 kts | 44° |
| 2026-05-06 12:46 | 40.50183 | -74.11546 | 6418 ft | 300 kts | 44° |
| 2026-05-06 12:46 | 40.51683 | -74.09637 | 6306 ft | 301 kts | 43° |
| 2026-05-06 12:46 | 40.53330 | -74.07963 | 6177 ft | 299 kts | 31° |
| 2026-05-06 12:47 | 40.55096 | -74.06505 | 6060 ft | 299 kts | 30° |
| 2026-05-06 12:47 | 40.56872 | -74.05082 | 5921 ft | 299 kts | 30° |
| 2026-05-06 12:47 | 40.58631 | -74.03643 | 5791 ft | 297 kts | 31° |
| 2026-05-06 12:47 | 40.60370 | -74.02188 | 5659 ft | 295 kts | 31° |
| 2026-05-06 12:48 | 40.62095 | -74.00729 | 5547 ft | 294 kts | 31° |
| 2026-05-06 12:48 | 40.63810 | -73.99281 | 5397 ft | 293 kts | 31° |
| 2026-05-06 12:48 | 40.65541 | -73.97849 | 5296 ft | 295 kts | 31° |
| 2026-05-06 12:48 | 40.67291 | -73.96409 | 5184 ft | 299 kts | 31° |
| 2026-05-06 12:49 | 40.69059 | -73.94953 | 5036 ft | 300 kts | 31° |
| 2026-05-06 12:49 | 40.70829 | -73.93493 | 4938 ft | 300 kts | 31° |
| 2026-05-06 12:49 | 40.72547 | -73.92075 | 4772 ft | 301 kts | 31° |
| 2026-05-06 12:49 | 40.74296 | -73.90628 | 4649 ft | 301 kts | 31° |
| 2026-05-06 12:50 | 40.76066 | -73.89162 | 4503 ft | 300 kts | 31° |
| 2026-05-06 12:50 | 40.77832 | -73.87697 | 4382 ft | 299 kts | 31° |
| 2026-05-06 12:50 | 40.79594 | -73.86236 | 4239 ft | 299 kts | 31° |
| 2026-05-06 12:50 | 40.81346 | -73.84782 | 4112 ft | 298 kts | 31° |
| 2026-05-06 12:51 | 40.83123 | -73.83306 | 3983 ft | 297 kts | 30° |
| 2026-05-06 12:51 | 40.84867 | -73.81857 | 3881 ft | 296 kts | 30° |
| 2026-05-06 12:51 | 40.86609 | -73.80408 | 3760 ft | 295 kts | 30° |
| 2026-05-06 12:51 | 40.88346 | -73.78963 | 3619 ft | 295 kts | 30° |
| 2026-05-06 12:52 | 40.90075 | -73.77521 | 3481 ft | 290 kts | 30° |
| 2026-05-06 12:52 | 40.91759 | -73.76118 | 3361 ft | 282 kts | 30° |
| 2026-05-06 12:52 | 40.93395 | -73.74754 | 3219 ft | 274 kts | 29° |
| 2026-05-06 12:52 | 40.94848 | -73.73191 | 3070 ft | 267 kts | 57° |
| 2026-05-06 12:53 | 40.95388 | -73.70993 | 3025 ft | 250 kts | 98° |
| 2026-05-06 12:53 | 40.95205 | -73.69498 | 2957 ft | 241 kts | 120° |
| 2026-05-06 12:53 | 40.93964 | -73.67287 | 2852 ft | 211 kts | 156° |
| 2026-05-06 12:53 | 40.92729 | -73.66544 | 2776 ft | 189 kts | 178° |
| 2026-05-06 12:54 | 40.91868 | -73.66423 | 2735 ft | 181 kts | 189° |
| 2026-05-06 12:54 | 40.90646 | -73.66637 | 2630 ft | 174 kts | 204° |
| 2026-05-06 12:54 | 40.89770 | -73.67584 | 2522 ft | 166 kts | 246° |
| 2026-05-06 12:54 | 40.89463 | -73.69052 | 2479 ft | 166 kts | 248° |
| 2026-05-06 12:55 | 40.89014 | -73.70916 | 2361 ft | 153 kts | 247° |
| 2026-05-06 12:55 | 40.88690 | -73.72214 | 2320 ft | 146 kts | 246° |
| 2026-05-06 12:55 | 40.88471 | -73.73072 | 2270 ft | 145 kts | 246° |
| 2026-05-06 12:55 | 40.88138 | -73.74357 | 2219 ft | 149 kts | 246° |
| 2026-05-06 12:56 | 40.87804 | -73.75637 | 2315 ft | 145 kts | 246° |
| 2026-05-06 12:56 | 40.87495 | -73.76928 | 2319 ft | 152 kts | 250° |
| 2026-05-06 12:56 | 40.87362 | -73.78357 | 2264 ft | 158 kts | 264° |
| 2026-05-06 12:56 | 40.87492 | -73.79757 | 1845 ft | 152 kts | 252° |
| 2026-05-06 12:57 | 40.86910 | -73.80805 | 1414 ft | 162 kts | 211° |
| 2026-05-06 12:57 | 40.85926 | -73.81399 | 1305 ft | 148 kts | 207° |
| 2026-05-06 12:57 | 40.85027 | -73.81996 | 1173 ft | 140 kts | 209° |
| 2026-05-06 12:57 | 40.84176 | -73.82616 | 1065 ft | 138 kts | 210° |
| 2026-05-06 12:58 | 40.83368 | -73.83222 | 1003 ft | 126 kts | 211° |
| 2026-05-06 12:58 | 40.82617 | -73.83790 | 810 ft | 124 kts | 213° |
| 2026-05-06 12:58 | 40.81882 | -73.84385 | 783 ft | 127 kts | 212° |
| 2026-05-06 12:58 | 40.81114 | -73.85024 | 723 ft | 130 kts | 211° |
| 2026-05-06 12:59 | 40.80335 | -73.85643 | 549 ft | 133 kts | 210° |
| 2026-05-06 12:59 | 40.79543 | -73.86244 | 258 ft | 131 kts | 212° |
| 2026-05-06 12:59 | 40.78766 | -73.86892 | 99 ft | 132 kts | 213° |
| 2026-05-06 12:59 | 40.78030 | -73.87497 | 14 ft | 113 kts | 211° |
| 2026-05-06 13:00 | 40.77540 | -73.87899 | 28 ft | 52 kts | 212° |
| 2026-05-06 13:00 | 40.77355 | -73.87994 | 20 ft | 17 kts | 184° |
| 2026-05-06 13:00 | 40.77298 | -73.87984 | 19 ft | 8 kts | 129° |
| 2026-05-06 13:00 | 40.77327 | -73.87926 | 19 ft | 8 kts | 33° |
| 2026-05-06 13:01 | 40.77375 | -73.87886 | 20 ft | 8 kts | 33° |
| 2026-05-06 13:01 | 40.77421 | -73.87846 | 20 ft | 8 kts | 33° |
| 2026-05-06 13:01 | 40.77465 | -73.87809 | 20 ft | 8 kts | 33° |
| 2026-05-06 13:01 | 40.77510 | -73.87774 | 20 ft | 7 kts | 29° |
| 2026-05-06 13:02 | 40.77553 | -73.87741 | 22 ft | 7 kts | 32° |
| 2026-05-06 13:02 | 40.77594 | -73.87707 | 20 ft | 7 kts | 32° |
| 2026-05-06 13:02 | 40.77634 | -73.87673 | 21 ft | 7 kts | 32° |
| 2026-05-06 13:02 | 40.77674 | -73.87639 | 22 ft | 7 kts | 33° |
| 2026-05-06 13:03 | 40.77725 | -73.87595 | 20 ft | 14 kts | 32° |
| 2026-05-06 13:03 | 40.77811 | -73.87473 | 14 ft | 21 kts | 66° |
| 2026-05-06 13:03 | 40.77829 | -73.87284 | 13 ft | 21 kts | 103° |
| 2026-05-06 13:03 | 40.77765 | -73.87116 | 13 ft | 20 kts | 122° |
| 2026-05-06 13:04 | 40.77691 | -73.86960 | 11 ft | 20 kts | 122° |
| 2026-05-06 13:04 | 40.77620 | -73.86810 | 11 ft | 19 kts | 122° |
| 2026-05-06 13:04 | 40.77550 | -73.86664 | 11 ft | 18 kts | 122° |
| 2026-05-06 13:04 | 40.77494 | -73.86577 | 11 ft | 10 kts | 161° |
| 2026-05-06 13:05 | 40.77429 | -73.86560 | 11 ft | 9 kts | 144° |
| 2026-05-06 13:05 | 40.77390 | -73.86487 | 11 ft | 12 kts | 122° |
| 2026-05-06 13:05 | 40.77334 | -73.86370 | 11 ft | 16 kts | 122° |
| 2026-05-06 13:05 | 40.77277 | -73.86252 | 11 ft | 15 kts | 122° |
| 2026-05-06 13:06 | 40.77223 | -73.86139 | 11 ft | 14 kts | 122° |
| 2026-05-06 13:06 | 40.77172 | -73.86030 | 11 ft | 14 kts | 121° |
| 2026-05-06 13:06 | 40.77096 | -73.85967 | 16 ft | 13 kts | 165° |
| 2026-05-06 13:06 | 40.77010 | -73.85936 | 18 ft | 13 kts | 165° |
| 2026-05-06 13:07 | 40.76937 | -73.85961 | 18 ft | 8 kts | 231° |
| 2026-05-06 13:07 | 40.76941 | -73.85998 | 19 ft | 4 kts | 309° |
| 2026-05-06 13:07 | 40.76953 | -73.86015 | 20 ft | 0 kts | 311° |
| 2026-05-06 13:07 | 40.76953 | -73.86016 | 20 ft | 0 kts | 311° |